Beirut, Lebanon
Current Conditions -  °F | °C
As of 3:00 PM on Thursday 29 Jan 2015 (Local Time) from OLBA Reporting Station
Scattered Clouds Scattered Clouds  
Wind Chill: 66°   Ceiling: Unl
Heat Index: 66°   Visibility: 6mi
Dew Point: 48°   Wind: 10mph
Humidity: 52%   Direction: 240°WSW
Pressure: 29.94"   Gusts: NA
Location:  33.89°N, 35.51°E
Report Text: OLBA 291200Z 24009KT 9999 FEW026 SCT080 19/09 Q1014
Loading
Personal Weather Stations






























Interactive Weather Map New forecast layout! Learn more

10-Day Weather Forecast

Advertisements
Track Severe Weather on mobile